Time;durP1;ratioP1;P1;durP2;ratioP2;P2;SDS_P1;SDS_P2;PMS_P1;PMS_P2;Temp;Humidity;BMP_temperature;BMP_pressure;BME280_temperature;BME280_humidity;BME280_pressure;Samples;Min_cycle;Max_cycle;Signal;HPM_P1;HPM_P2
2022/05/04 00:01:15;;;;;;;;;;;;;;;8.93;100.00;98393.69;3208049;23;19924;-82
2022/05/04 00:02:30;;;;;;;;;;;;;;;8.97;100.00;98390.13;3207548;23;19928;-81
2022/05/04 00:03:46;;;;;;;;;;;;;;;9.00;100.00;98384.84;3207733;23;19924;-81
2022/05/04 00:05:03;;;;;;;;;;;;;;;8.93;100.00;98385.84;3207381;23;20129;-81
2022/05/04 00:06:18;;;;;;;;;;;;;;;8.88;100.00;98391.22;3208028;23;20771;-83
2022/05/04 00:07:33;;;;;;;;;;;;;;;8.89;100.00;98385.09;3207913;23;19924;-83
2022/05/04 00:08:49;;;;;;;;;;;;;;;8.88;100.00;98389.44;3207706;23;19963;-83
2022/05/04 00:10:05;;;;;;;;;;;;;;;8.85;100.00;98383.41;3207511;23;20430;-82
2022/05/04 00:11:21;;;;;;;;;;;;;;;8.85;100.00;98386.91;3207661;23;20244;-82
2022/05/04 00:12:37;;;;;;;;;;;;;;;8.84;100.00;98385.19;3207867;23;19986;-82
2022/05/04 00:13:52;;;;;;;;;;;;;;;8.83;100.00;98380.84;3207707;23;19923;-81
2022/05/04 00:15:08;;;;;;;;;;;;;;;8.86;100.00;98385.13;3207951;23;19924;-81
2022/05/04 00:16:23;;;;;;;;;;;;;;;8.83;100.00;98382.59;3209278;23;19970;-82
2022/05/04 00:17:39;;;;;;;;;;;;;;;8.81;100.00;98387.88;3208894;23;19977;-82
2022/05/04 00:18:54;;;;;;;;;;;;;;;8.81;100.00;98387.88;3208903;23;19936;-85
2022/05/04 00:20:10;;;;;;;;;;;;;;;8.81;100.00;98387.00;3209176;23;19985;-83
2022/05/04 00:21:26;;;;;;;;;;;;;;;8.79;100.00;98389.63;3208944;23;20083;-82
2022/05/04 00:22:41;;;;;;;;;;;;;;;8.71;100.00;98391.56;3208759;23;19947;-84
2022/05/04 00:23:56;;;;;;;;;;;;;;;8.73;100.00;98397.59;3208855;23;19923;-81
2022/05/04 00:25:12;;;;;;;;;;;;;;;8.65;100.00;98397.78;3208894;23;20470;-81
2022/05/04 00:26:28;;;;;;;;;;;;;;;8.69;100.00;98398.56;3208915;23;19923;-80
2022/05/04 00:27:43;;;;;;;;;;;;;;;8.65;100.00;98399.50;3208844;23;19986;-80
2022/05/04 00:28:58;;;;;;;;;;;;;;;8.65;100.00;98405.59;3209134;23;19977;-81
2022/05/04 00:30:14;;;;;;;;;;;;;;;8.62;100.00;98400.44;3208920;23;20058;-81
2022/05/04 00:31:30;;;;;;;;;;;;;;;8.61;100.00;98399.56;3208845;23;19924;-81
2022/05/04 00:32:46;;;;;;;;;;;;;;;8.59;100.00;98398.75;3208578;23;20132;-81
2022/05/04 00:34:01;;;;;;;;;;;;;;;8.57;100.00;98408.38;3208913;23;20236;-81
2022/05/04 00:35:16;;;;;;;;;;;;;;;8.50;100.00;98406.75;3207883;23;20317;-82
2022/05/04 00:36:32;;;;;;;;;;;;;;;8.46;100.00;98410.28;3208381;23;20414;-82
2022/05/04 00:37:47;;;;;;;;;;;;;;;8.46;100.00;98402.47;3213884;23;20008;-83
2022/05/04 00:39:03;;;;;;;;;;;;;;;8.52;100.00;98409.34;3209050;23;19924;-82
2022/05/04 00:40:18;;;;;;;;;;;;;;;8.47;100.00;98412.88;3208787;23;19927;-84
2022/05/04 00:41:34;;;;;;;;;;;;;;;8.48;100.00;98409.38;3209006;23;19931;-82
2022/05/04 00:42:49;;;;;;;;;;;;;;;8.44;100.00;98417.28;3208429;23;19930;-81
2022/05/04 00:44:04;;;;;;;;;;;;;;;8.45;100.00;98413.81;3208949;23;20339;-81
2022/05/04 00:45:20;;;;;;;;;;;;;;;8.39;100.00;98417.38;3208915;23;19924;-81
2022/05/04 00:46:35;;;;;;;;;;;;;;;8.36;100.00;98413.97;3208615;23;19950;-81
2022/05/04 00:47:51;;;;;;;;;;;;;;;8.33;100.00;98414.91;3208720;23;19926;-81
2022/05/04 00:49:06;;;;;;;;;;;;;;;8.30;100.00;98421.03;3209154;23;20243;-81
2022/05/04 00:50:22;;;;;;;;;;;;;;;8.31;100.00;98407.09;3208446;23;19928;-81
2022/05/04 00:51:37;;;;;;;;;;;;;;;8.31;100.00;98412.31;3208862;23;19942;-83
2022/05/04 00:52:53;;;;;;;;;;;;;;;8.32;100.00;98413.19;3208555;23;20336;-81
2022/05/04 00:54:08;;;;;;;;;;;;;;;8.26;100.00;98411.56;3207992;23;20411;-84
2022/05/04 00:55:24;;;;;;;;;;;;;;;8.24;100.00;98410.72;3208609;23;20394;-87
2022/05/04 00:56:39;;;;;;;;;;;;;;;8.23;100.00;98414.19;3208613;23;19924;-82
2022/05/04 00:59:31;;;;;;;;;;;;;;;8.19;100.00;98413.44;3176752;23;19928;-81
2022/05/04 01:00:48;;;;;;;;;;;;;;;8.19;100.00;98415.16;3208373;23;20336;-82
2022/05/04 01:02:04;;;;;;;;;;;;;;;8.17;100.00;98414.34;3209037;23;20259;-82
2022/05/04 01:03:20;;;;;;;;;;;;;;;8.18;100.00;98416.91;3208238;23;19931;-82
2022/05/04 01:04:35;;;;;;;;;;;;;;;8.18;100.00;98418.66;3208963;23;20406;-83
2022/05/04 01:05:51;;;;;;;;;;;;;;;8.15;100.00;98416.94;3208387;23;19952;-83
2022/05/04 01:07:07;;;;;;;;;;;;;;;8.14;100.00;98417.84;3208420;23;19919;-82
2022/05/04 01:08:23;;;;;;;;;;;;;;;8.11;100.00;98419.66;3209224;23;19920;-82
2022/05/04 01:09:38;;;;;;;;;;;;;;;8.10;100.00;98421.41;3208594;23;20370;-81
2022/05/04 01:10:54;;;;;;;;;;;;;;;8.11;100.00;98411.84;3208852;23;20327;-84
2022/05/04 01:12:09;;;;;;;;;;;;;;;8.10;100.00;98416.19;3208653;23;19924;-82
2022/05/04 01:13:25;;;;;;;;;;;;;;;8.11;100.00;98417.06;3208397;23;19928;-82
2022/05/04 01:14:40;;;;;;;;;;;;;;;8.10;100.00;98423.13;3208597;23;20397;-86
2022/05/04 01:15:56;;;;;;;;;;;;;;;8.09;100.00;98418.81;3207332;23;19977;-87
2022/05/04 01:17:11;;;;;;;;;;;;;;;8.11;100.00;98419.66;3207957;23;20343;-81
2022/05/04 01:18:27;;;;;;;;;;;;;;;8.13;100.00;98423.09;3208823;23;19920;-81
2022/05/04 01:19:42;;;;;;;;;;;;;;;8.12;100.00;98426.59;3208871;23;19947;-82
2022/05/04 01:20:58;;;;;;;;;;;;;;;8.08;100.00;98428.41;3208519;23;19947;-81
2022/05/04 01:22:13;;;;;;;;;;;;;;;8.10;100.00;98428.34;3208456;23;19927;-82
2022/05/04 01:23:29;;;;;;;;;;;;;;;8.16;100.00;98423.03;3208428;23;19920;-82
2022/05/04 01:24:44;;;;;;;;;;;;;;;8.13;100.00;98423.94;3208526;23;19924;-82
2022/05/04 01:25:59;;;;;;;;;;;;;;;8.19;100.00;98423.84;3208345;23;19982;-82
2022/05/04 01:27:15;;;;;;;;;;;;;;;8.15;100.00;98429.16;3207976;23;20427;-82
2022/05/04 01:28:30;;;;;;;;;;;;;;;8.14;100.00;98427.44;3209061;23;19924;-81
2022/05/04 01:29:47;;;;;;;;;;;;;;;8.15;100.00;98423.94;3208648;23;19923;-85
2022/05/04 01:31:03;;;;;;;;;;;;;;;8.12;100.00;98429.22;3208585;23;19924;-82
2022/05/04 01:32:18;;;;;;;;;;;;;;;8.08;100.00;98425.78;3208471;23;20371;-81
2022/05/04 01:33:34;;;;;;;;;;;;;;;8.08;100.00;98430.13;3208747;23;20104;-82
2022/05/04 01:34:49;;;;;;;;;;;;;;;8.05;100.00;98429.31;3208483;23;19982;-82
2022/05/04 01:36:06;;;;;;;;;;;;;;;8.05;100.00;98429.31;3208183;23;19924;-82
2022/05/04 01:37:22;;;;;;;;;;;;;;;8.00;100.00;98428.53;3208309;23;19931;-82
2022/05/04 01:38:37;;;;;;;;;;;;;;;7.97;100.00;98432.94;3208605;23;19924;-82
2022/05/04 01:39:52;;;;;;;;;;;;;;;7.93;100.00;98431.28;3208436;23;19928;-84
2022/05/04 01:42:02;;;;;;;;;;;;;;;7.88;100.00;98431.34;3208236;23;19924;-82
2022/05/04 01:42:43;;;;;;;;;;;;;;;7.87;100.00;98432.25;3208494;23;19927;-83
2022/05/04 01:43:59;;;;;;;;;;;;;;;7.83;100.00;98431.44;3208362;23;20258;-82
2022/05/04 01:45:14;;;;;;;;;;;;;;;7.84;100.00;98432.31;3208493;23;19923;-82
2022/05/04 01:46:29;;;;;;;;;;;;;;;7.85;100.00;98432.25;3208091;23;20311;-81
2022/05/04 01:47:48;;;;;;;;;;;;;;;7.89;100.00;98433.94;3208717;23;19931;-82
2022/05/04 01:49:03;;;;;;;;;;;;;;;7.89;100.00;98438.28;3208221;23;20300;-82
2022/05/04 01:50:19;;;;;;;;;;;;;;;7.82;100.00;98431.44;3208063;23;19923;-82
2022/05/04 01:51:35;;;;;;;;;;;;;;;7.80;100.00;98430.63;3208498;23;19924;-82
2022/05/04 01:52:50;;;;;;;;;;;;;;;7.77;100.00;98429.78;3208296;23;20252;-83
2022/05/04 01:54:05;;;;;;;;;;;;;;;7.76;100.00;98424.63;3208105;23;19977;-83
2022/05/04 01:55:22;;;;;;;;;;;;;;;7.78;100.00;98435.88;3208369;23;19924;-83
2022/05/04 01:56:38;;;;;;;;;;;;;;;7.82;100.00;98428.84;3208417;23;19924;-83
2022/05/04 01:57:53;;;;;;;;;;;;;;;7.83;100.00;98427.97;3207843;23;19939;-83
2022/05/04 01:59:09;;;;;;;;;;;;;;;7.85;100.00;98434.03;3207994;23;20426;-83
2022/05/04 02:00:24;;;;;;;;;;;;;;;7.84;100.00;98430.53;3208412;23;19928;-82
2022/05/04 02:01:40;;;;;;;;;;;;;;;7.85;100.00;98427.03;3208176;23;20409;-81
2022/05/04 02:02:55;;;;;;;;;;;;;;;7.93;100.00;98431.28;3208422;23;19927;-82
2022/05/04 02:04:12;;;;;;;;;;;;;;;7.88;100.00;98431.34;3208670;23;20224;-81
2022/05/04 02:05:27;;;;;;;;;;;;;;;7.90;100.00;98432.19;3208665;23;20000;-81
2022/05/04 02:06:43;;;;;;;;;;;;;;;7.92;100.00;98433.03;3208352;23;19930;-82
2022/05/04 02:07:58;;;;;;;;;;;;;;;7.89;100.00;98431.34;3208391;23;19978;-82
2022/05/04 02:09:14;;;;;;;;;;;;;;;7.83;100.00;98428.81;3208356;23;19995;-82
2022/05/04 02:10:30;;;;;;;;;;;;;;;7.83;100.00;98428.81;3208538;23;19986;-82
2022/05/04 02:11:45;;;;;;;;;;;;;;;7.85;100.00;98429.66;3208424;23;19923;-81
2022/05/04 02:13:01;;;;;;;;;;;;;;;7.86;100.00;98431.38;3208244;23;20319;-81
2022/05/04 02:14:16;;;;;;;;;;;;;;;7.85;100.00;98428.81;3208276;23;19994;-82
2022/05/04 02:15:32;;;;;;;;;;;;;;;7.91;100.00;98433.91;3207748;23;19930;-85
2022/05/04 02:16:47;;;;;;;;;;;;;;;7.93;100.00;98432.13;3208000;23;20236;-84
2022/05/04 02:18:03;;;;;;;;;;;;;;;7.97;100.00;98435.56;3208250;23;19940;-83
2022/05/04 02:19:18;;;;;;;;;;;;;;;7.98;100.00;98429.44;3208423;23;20255;-83
2022/05/04 02:20:33;;;;;;;;;;;;;;;7.83;100.00;98434.03;3208501;23;19924;-83
2022/05/04 02:21:49;;;;;;;;;;;;;;;7.87;100.00;98429.63;3208329;23;20340;-82
2022/05/04 02:23:04;;;;;;;;;;;;;;;7.84;100.00;98432.31;3208034;23;20279;-88
2022/05/04 02:24:20;;;;;;;;;;;;;;;7.82;100.00;98434.06;3208285;23;20274;-86
2022/05/04 02:25:36;;;;;;;;;;;;;;;7.72;100.00;98433.34;3208238;23;20258;-82
2022/05/04 02:26:51;;;;;;;;;;;;;;;7.78;100.00;98433.28;3208422;23;19946;-82
2022/05/04 02:28:06;;;;;;;;;;;;;;;7.78;100.00;98435.88;3208171;23;19924;-82
2022/05/04 02:29:22;;;;;;;;;;;;;;;7.73;100.00;98430.72;3208155;23;20581;-84
2022/05/04 02:30:37;;;;;;;;;;;;;;;7.72;100.00;98436.84;3208061;23;19924;-84
2022/05/04 02:31:53;;;;;;;;;;;;;;;7.65;100.00;98437.81;3207860;23;19943;-83
2022/05/04 02:33:08;;;;;;;;;;;;;;;7.67;100.00;98437.78;3208176;23;19920;-83
2022/05/04 02:34:24;;;;;;;;;;;;;;;7.64;100.00;98441.28;3207961;23;20015;-83
2022/05/04 02:38:47;;;;;;;;;;;;;;;7.56;100.00;98444.03;3213332;23;19926;-84
2022/05/04 02:40:03;;;;;;;;;;;;;;;7.51;100.00;98440.66;3208373;23;19923;-84
2022/05/04 02:41:18;;;;;;;;;;;;;;;7.52;100.00;98442.38;3208210;23;20251;-84
2022/05/04 02:42:34;;;;;;;;;;;;;;;7.55;100.00;98438.84;3208098;23;20006;-83
2022/05/04 02:43:49;;;;;;;;;;;;;;;7.53;100.00;98441.47;3208075;23;19923;-83
2022/05/04 02:45:05;;;;;;;;;;;;;;;7.44;100.00;98439.88;3208244;23;19928;-83
2022/05/04 02:46:23;;;;;;;;;;;;;;;7.43;100.00;98439.88;3208680;23;19920;-83
2022/05/04 02:47:38;;;;;;;;;;;;;;;7.39;100.00;98441.66;3207807;23;19924;-84
2022/05/04 02:48:54;;;;;;;;;;;;;;;7.37;100.00;98446.03;3208449;23;19919;-83
2022/05/04 02:50:09;;;;;;;;;;;;;;;7.27;100.00;98437.50;3208167;23;19927;-84
2022/05/04 02:51:25;;;;;;;;;;;;;;;7.38;100.00;98444.31;3208146;23;19978;-82
2022/05/04 02:52:40;;;;;;;;;;;;;;;7.31;100.00;98443.53;3208414;23;19931;-81
2022/05/04 02:53:56;;;;;;;;;;;;;;;7.28;100.00;98446.22;3208030;23;19928;-86
2022/05/04 02:55:11;;;;;;;;;;;;;;;7.25;100.00;98443.63;3207858;23;19924;-83
2022/05/04 02:56:27;;;;;;;;;;;;;;;7.18;100.00;98442.84;3208045;23;19967;-82
2022/05/04 02:57:42;;;;;;;;;;;;;;;7.15;100.00;98437.69;3208393;23;19931;-82
2022/05/04 02:58:58;;;;;;;;;;;;;;;7.09;100.00;98438.63;3208567;23;20415;-83
2022/05/04 03:00:13;;;;;;;;;;;;;;;7.02;100.00;98442.22;3208127;23;19935;-88
2022/05/04 03:03:03;;;;;;;;;;;;;;;7.04;100.00;98448.25;3207939;23;20015;-84
2022/05/04 03:04:18;;;;;;;;;;;;;;;7.02;100.00;98444.81;3208189;23;19927;-83
2022/05/04 03:05:34;;;;;;;;;;;;;;;7.02;100.00;98448.28;3208225;23;20774;-82
2022/05/04 03:06:49;;;;;;;;;;;;;;;7.03;100.00;98447.38;3207890;23;20498;-85
2022/05/04 03:08:05;;;;;;;;;;;;;;;7.02;100.00;98450.03;3207944;23;19934;-84
2022/05/04 03:09:21;;;;;;;;;;;;;;;6.97;100.00;98452.69;3208206;23;19927;-83
2022/05/04 03:12:10;;;;;;;;;;;;;;;6.92;100.00;98444.94;3208205;23;20316;-82
2022/05/04 03:13:26;;;;;;;;;;;;;;;6.88;100.00;98450.19;3207702;23;19970;-85
2022/05/04 03:14:41;;;;;;;;;;;;;;;6.87;100.00;98454.56;3208053;23;19959;-82
2022/05/04 03:15:56;;;;;;;;;;;;;;;6.88;100.00;98451.06;3207593;23;20393;-82
2022/05/04 03:17:12;;;;;;;;;;;;;;;6.90;100.00;98449.31;3208318;23;19967;-83
2022/05/04 03:18:27;;;;;;;;;;;;;;;6.89;100.00;98451.91;3208089;23;19939;-82
2022/05/04 03:19:43;;;;;;;;;;;;;;;6.90;100.00;98444.09;3208195;23;20345;-81
2022/05/04 03:20:59;;;;;;;;;;;;;;;6.94;100.00;98447.53;3207873;23;19926;-82
2022/05/04 03:22:14;;;;;;;;;;;;;;;6.90;100.00;98449.31;3205192;23;19920;-81
2022/05/04 03:23:29;;;;;;;;;;;;;;;6.92;100.00;98449.28;3207829;23;19924;-82
2022/05/04 03:24:45;;;;;;;;;;;;;;;6.92;100.00;98444.09;3208015;23;19928;-82
2022/05/04 03:26:01;;;;;;;;;;;;;;;6.86;100.00;98442.44;3207784;23;19924;-82
2022/05/04 03:27:16;;;;;;;;;;;;;;;6.85;100.00;98445.91;3207229;23;19951;-83
2022/05/04 03:28:32;;;;;;;;;;;;;;;6.85;100.00;98448.50;3206841;23;19978;-81
2022/05/04 03:29:48;;;;;;;;;;;;;;;6.83;100.00;98442.44;3207795;23;19943;-83
2022/05/04 03:31:03;;;;;;;;;;;;;;;6.87;100.00;98443.28;3207977;23;19939;-82
2022/05/04 03:32:18;;;;;;;;;;;;;;;6.87;100.00;98443.28;3207480;23;20377;-82
2022/05/04 03:33:34;;;;;;;;;;;;;;;6.90;100.00;98444.09;3207135;23;19920;-84
2022/05/04 03:34:49;;;;;;;;;;;;;;;6.90;100.00;98441.50;3207188;23;19951;-82
2022/05/04 03:36:05;;;;;;;;;;;;;;;6.89;100.00;98442.38;3207367;23;20339;-82
2022/05/04 03:37:20;;;;;;;;;;;;;;;6.86;100.00;98441.56;3207303;23;19979;-83
2022/05/04 03:38:35;;;;;;;;;;;;;;;6.84;100.00;98444.16;3207839;23;20395;-82
2022/05/04 03:39:51;;;;;;;;;;;;;;;6.87;100.00;98444.16;3207515;23;19920;-81
2022/05/04 03:41:06;;;;;;;;;;;;;;;6.87;100.00;98444.16;3207903;23;20250;-82
2022/05/04 03:42:22;;;;;;;;;;;;;;;6.88;100.00;98451.06;3207321;23;20390;-82
2022/05/04 03:43:38;;;;;;;;;;;;;;;6.89;100.00;98439.78;3208131;23;19999;-82
2022/05/04 03:44:54;;;;;;;;;;;;;;;6.86;100.00;98450.25;3208385;23;19939;-83
2022/05/04 03:46:17;;;;;;;;;;;;;;;6.86;100.00;98450.25;3208345;23;20582;-83
2022/05/04 03:47:33;;;;;;;;;;;;;;;6.79;100.00;98456.38;3208167;23;19923;-83
2022/05/04 03:48:49;;;;;;;;;;;;;;;6.85;100.00;98461.53;3207813;23;20189;-83
2022/05/04 03:50:05;;;;;;;;;;;;;;;6.82;100.00;98455.50;3207926;23;19924;-82
2022/05/04 03:51:20;;;;;;;;;;;;;;;6.82;100.00;98452.88;3208673;23;19926;-82
2022/05/04 03:52:36;;;;;;;;;;;;;;;6.86;100.00;98446.75;3208798;23;20298;-84
2022/05/04 03:53:52;;;;;;;;;;;;;;;6.85;100.00;98445.91;3208997;23;19924;-85
2022/05/04 03:55:08;;;;;;;;;;;;;;;6.81;100.00;98454.63;3208646;23;19920;-82
2022/05/04 03:56:23;;;;;;;;;;;;;;;6.83;100.00;98445.03;3208889;23;19927;-82
2022/05/04 03:57:39;;;;;;;;;;;;;;;6.85;100.00;98451.13;3208386;23;19923;-82
2022/05/04 03:58:54;;;;;;;;;;;;;;;6.88;100.00;98451.06;3208497;23;19923;-84
2022/05/04 04:00:10;;;;;;;;;;;;;;;6.88;100.00;98453.69;3208720;23;20339;-83
2022/05/04 04:01:26;;;;;;;;;;;;;;;6.88;100.00;98450.19;3208321;23;19928;-83
2022/05/04 04:02:41;;;;;;;;;;;;;;;6.88;100.00;98452.78;3208224;23;20236;-85
2022/05/04 04:03:57;;;;;;;;;;;;;;;6.91;100.00;98452.75;3208730;23;20401;-82
2022/05/04 04:05:12;;;;;;;;;;;;;;;6.92;100.00;98457.94;3208463;23;20015;-83
2022/05/04 04:06:28;;;;;;;;;;;;;;;6.95;100.00;98458.78;3208832;23;19923;-79
2022/05/04 04:07:43;;;;;;;;;;;;;;;6.99;100.00;98458.72;3208161;23;20490;-81
2022/05/04 04:08:59;;;;;;;;;;;;;;;7.01;100.00;98461.31;3208537;23;19982;-81
2022/05/04 04:10:15;;;;;;;;;;;;;;;7.03;100.00;98460.41;3208661;23;19920;-81
2022/05/04 04:11:31;;;;;;;;;;;;;;;7.02;100.00;98461.28;3208296;23;20011;-83
2022/05/04 04:12:46;;;;;;;;;;;;;;;7.10;100.00;98463.78;3207948;23;19931;-83
2022/05/04 04:14:02;;;;;;;;;;;;;;;7.10;100.00;98466.38;3209136;23;20354;-83
2022/05/04 04:15:17;;;;;;;;;;;;;;;7.07;100.00;98466.44;3209043;23;20043;-83
2022/05/04 04:16:32;;;;;;;;;;;;;;;7.10;100.00;98465.53;3208717;23;19924;-83
2022/05/04 04:17:48;;;;;;;;;;;;;;;7.13;100.00;98475.91;3208420;23;19931;-82
2022/05/04 04:19:03;;;;;;;;;;;;;;;7.14;100.00;98475.03;3208059;23;19924;-82
2022/05/04 04:21:53;;;;;;;;;;;;;;;7.12;100.00;98477.63;3208553;23;19924;-82
2022/05/04 04:23:09;;;;;;;;;;;;;;;7.16;100.00;98481.94;3208638;23;20279;-81
2022/05/04 04:24:25;;;;;;;;;;;;;;;7.09;100.00;98482.91;3208041;23;19936;-82
2022/05/04 04:25:41;;;;;;;;;;;;;;;7.04;100.00;98480.34;3207741;23;19930;-82
2022/05/04 04:26:56;;;;;;;;;;;;;;;7.00;100.00;98485.63;3208466;23;20785;-82
2022/05/04 04:28:12;;;;;;;;;;;;;;;6.96;100.00;98484.81;3208404;23;19923;-85
2022/05/04 04:29:27;;;;;;;;;;;;;;;6.95;100.00;98485.69;3208569;23;20564;-82
2022/05/04 04:30:43;;;;;;;;;;;;;;;6.99;100.00;98483.91;3208540;23;20042;-82
2022/05/04 04:31:58;;;;;;;;;;;;;;;6.98;100.00;98471.75;3207788;23;20346;-81
2022/05/04 04:33:14;;;;;;;;;;;;;;;6.95;100.00;98484.81;3208711;23;19924;-81
2022/05/04 04:34:30;;;;;;;;;;;;;;;6.92;100.00;98486.59;3208329;23;19947;-82
2022/05/04 04:35:46;;;;;;;;;;;;;;;6.93;100.00;98482.25;3208323;23;19923;-82
2022/05/04 04:37:01;;;;;;;;;;;;;;;6.95;100.00;98485.69;3207810;23;19930;-82
2022/05/04 04:38:17;;;;;;;;;;;;;;;7.03;100.00;98485.59;3208633;23;19930;-82
2022/05/04 04:39:32;;;;;;;;;;;;;;;7.04;100.00;98482.09;3208359;23;19975;-81
2022/05/04 04:40:48;;;;;;;;;;;;;;;7.03;100.00;98486.44;3208878;23;19924;-81
2022/05/04 04:42:03;;;;;;;;;;;;;;;7.02;100.00;98478.66;3208298;23;19923;-83
2022/05/04 04:43:19;;;;;;;;;;;;;;;7.07;100.00;98487.25;3207967;23;19927;-82
2022/05/04 04:44:35;;;;;;;;;;;;;;;6.98;100.00;98487.38;3207913;23;20255;-82
2022/05/04 04:45:50;;;;;;;;;;;;;;;7.00;100.00;98480.44;3208320;23;19969;-82
2022/05/04 04:47:06;;;;;;;;;;;;;;;6.98;100.00;98483.03;3208387;23;20259;-82
2022/05/04 04:48:21;;;;;;;;;;;;;;;6.98;100.00;98487.38;3208111;23;19924;-82
2022/05/04 04:49:37;;;;;;;;;;;;;;;6.95;100.00;98484.81;3208266;23;19974;-82
2022/05/04 04:50:52;;;;;;;;;;;;;;;6.94;100.00;98481.38;3207584;23;20107;-83
2022/05/04 04:52:07;;;;;;;;;;;;;;;6.93;100.00;98485.69;3207595;23;19943;-82
2022/05/04 04:53:23;;;;;;;;;;;;;;;6.93;100.00;98490.91;3207891;23;19924;-82
2022/05/04 04:54:38;;;;;;;;;;;;;;;6.98;100.00;98492.56;3208447;23;19930;-82
2022/05/04 04:55:54;;;;;;;;;;;;;;;6.96;100.00;98484.81;3208311;23;19926;-82
2022/05/04 04:57:09;;;;;;;;;;;;;;;7.00;100.00;98486.47;3208366;23;19967;-82
2022/05/04 04:58:25;;;;;;;;;;;;;;;7.03;100.00;98486.44;3207451;23;20124;-82
2022/05/04 04:59:42;;;;;;;;;;;;;;;7.04;100.00;98487.31;3207473;23;20043;-82
2022/05/04 05:00:57;;;;;;;;;;;;;;;7.10;100.00;98484.63;3208085;23;19928;-81
2022/05/04 05:02:13;;;;;;;;;;;;;;;7.09;100.00;98482.06;3207963;23;19939;-82
2022/05/04 05:03:28;;;;;;;;;;;;;;;7.12;100.00;98493.25;3208211;23;19924;-82
2022/05/04 05:04:44;;;;;;;;;;;;;;;7.14;100.00;98480.22;3208297;23;19924;-82
2022/05/04 05:05:59;;;;;;;;;;;;;;;7.12;100.00;98492.41;3207764;23;19941;-83
2022/05/04 05:07:15;;;;;;;;;;;;;;;7.05;100.00;98494.25;3208265;23;19928;-82
2022/05/04 05:08:30;;;;;;;;;;;;;;;7.04;100.00;98493.38;3207872;23;20510;-85
2022/05/04 05:09:46;;;;;;;;;;;;;;;7.13;100.00;98501.94;3208184;23;19923;-83
2022/05/04 05:11:01;;;;;;;;;;;;;;;7.14;100.00;98494.13;3208468;23;19928;-83
2022/05/04 05:12:17;;;;;;;;;;;;;;;7.12;100.00;98495.03;3206440;23;20734;-83
2022/05/04 05:13:32;;;;;;;;;;;;;;;7.09;100.00;98500.28;3206887;23;20411;-82
2022/05/04 05:16:23;;;;;;;;;;;;;;;7.18;100.00;98487.13;3208614;23;19920;-82
2022/05/04 05:17:38;;;;;;;;;;;;;;;7.18;100.00;98490.59;3208259;23;19955;-85
2022/05/04 05:18:53;;;;;;;;;;;;;;;7.21;100.00;98495.75;3208738;23;19931;-84
2022/05/04 05:20:09;;;;;;;;;;;;;;;7.24;100.00;98493.97;3207942;23;19931;-83
2022/05/04 05:21:25;;;;;;;;;;;;;;;7.29;100.00;98489.59;3208314;23;19924;-82
2022/05/04 05:22:40;;;;;;;;;;;;;;;7.30;100.00;98497.38;3208362;23;19920;-83
2022/05/04 05:23:55;;;;;;;;;;;;;;;7.30;100.00;98493.91;3207800;23;19963;-83
2022/05/04 05:25:11;;;;;;;;;;;;;;;7.34;100.00;98498.19;3208416;23;20324;-83
2022/05/04 05:26:27;;;;;;;;;;;;;;;7.34;100.00;98496.47;3208708;23;19928;-82
2022/05/04 05:27:42;;;;;;;;;;;;;;;7.37;100.00;98492.94;3207996;23;20293;-82
2022/05/04 05:28:58;;;;;;;;;;;;;;;7.35;100.00;98502.50;3208654;23;19949;-83
2022/05/04 05:30:13;;;;;;;;;;;;;;;7.37;100.00;98505.94;3208866;23;19931;-86
2022/05/04 05:31:29;;;;;;;;;;;;;;;7.31;100.00;98508.66;3208187;23;19927;-83
2022/05/04 05:32:44;;;;;;;;;;;;;;;7.34;100.00;98512.09;3208273;23;19946;-84
2022/05/04 05:33:59;;;;;;;;;;;;;;;7.31;100.00;98506.06;3208216;23;19969;-83
2022/05/04 05:35:15;;;;;;;;;;;;;;;7.40;100.00;98508.50;3208210;23;19924;-84
2022/05/04 05:36:30;;;;;;;;;;;;;;;7.47;100.00;98504.06;3208562;23;20248;-83
2022/05/04 05:37:46;;;;;;;;;;;;;;;7.54;100.00;98513.53;3208404;23;19931;-85
2022/05/04 05:39:02;;;;;;;;;;;;;;;7.54;100.00;98505.72;3208724;23;19978;-83
2022/05/04 05:40:18;;;;;;;;;;;;;;;7.65;100.00;98502.94;3208339;23;20265;-82
2022/05/04 05:41:35;;;;;;;;;;;;;;;7.69;100.00;98503.78;3207585;23;20301;-83
2022/05/04 05:42:51;;;;;;;;;;;;;;;7.80;100.00;98504.47;3209406;23;19920;-88
2022/05/04 05:44:06;;;;;;;;;;;;;;;7.83;100.00;98503.56;3210658;23;20335;-87
2022/05/04 05:45:22;;;;;;;;;;;;;;;7.84;100.00;98507.91;3208182;23;19991;-83
2022/05/04 05:46:37;;;;;;;;;;;;;;;7.64;100.00;98503.84;3209905;23;19920;-85
2022/05/04 05:47:52;;;;;;;;;;;;;;;7.74;100.00;98505.44;3207163;23;19994;-85
2022/05/04 05:49:08;;;;;;;;;;;;;;;7.86;100.00;98503.50;3208332;23;19924;-85
2022/05/04 05:50:23;;;;;;;;;;;;;;;7.84;100.00;98507.91;3207999;23;19924;-84
2022/05/04 05:51:39;;;;;;;;;;;;;;;7.80;100.00;98511.41;3208093;23;19931;-85
2022/05/04 05:52:54;;;;;;;;;;;;;;;7.82;100.00;98501.81;3208286;23;20331;-85
2022/05/04 05:54:10;;;;;;;;;;;;;;;7.75;100.00;98504.53;3208760;23;19928;-85
2022/05/04 05:55:25;;;;;;;;;;;;;;;7.78;100.00;98507.09;3208259;23;19928;-86
2022/05/04 05:56:41;;;;;;;;;;;;;;;7.80;100.00;98503.59;3208062;23;19923;-86
2022/05/04 05:57:56;;;;;;;;;;;;;;;7.78;100.00;98507.09;3208721;23;19931;-86
2022/05/04 05:59:12;;;;;;;;;;;;;;;7.78;100.00;98508.84;3208573;23;19931;-85
2022/05/04 06:00:28;;;;;;;;;;;;;;;7.81;100.00;98506.19;3209403;23;20009;-85
2022/05/04 06:01:43;;;;;;;;;;;;;;;7.83;100.00;98507.03;3208836;23;19970;-85
2022/05/04 06:02:58;;;;;;;;;;;;;;;7.81;100.00;98506.19;3208737;23;19970;-85
2022/05/04 06:04:14;;;;;;;;;;;;;;;7.90;100.00;98507.78;3208769;23;20736;-85
2022/05/04 06:05:29;;;;;;;;;;;;;;;7.97;100.00;98509.44;3208274;23;19970;-85
2022/05/04 06:06:46;;;;;;;;;;;;;;;8.02;100.00;98504.97;3208292;23;19931;-84
2022/05/04 06:08:01;;;;;;;;;;;;;;;8.10;100.00;98510.06;3208619;23;19939;-84
2022/05/04 06:09:17;;;;;;;;;;;;;;;8.16;100.00;98496.06;3208239;23;20259;-86
2022/05/04 06:10:32;;;;;;;;;;;;;;;8.24;100.00;98509.84;3208357;23;19931;-88
2022/05/04 06:11:47;;;;;;;;;;;;;;;8.29;100.00;98502.78;3208402;23;20065;-85
2022/05/04 06:13:03;;;;;;;;;;;;;;;8.32;100.00;98505.34;3208178;23;19924;-84
2022/05/04 06:14:19;;;;;;;;;;;;;;;8.34;100.00;98505.31;3208234;23;20209;-88
2022/05/04 06:15:34;;;;;;;;;;;;;;;8.42;100.00;98503.41;3208673;23;20422;-89
2022/05/04 06:16:50;;;;;;;;;;;;;;;8.52;100.00;98506.78;3208874;23;19924;-85
2022/05/04 06:18:06;;;;;;;;;;;;;;;8.51;100.00;98506.78;3208548;23;20352;-84
2022/05/04 06:19:21;;;;;;;;;;;;;;;8.60;100.00;98504.03;3208379;23;20405;-84
2022/05/04 06:20:36;;;;;;;;;;;;;;;8.72;100.00;98505.53;3208831;23;19935;-83
2022/05/04 06:21:52;;;;;;;;;;;;;;;8.79;100.00;98499.28;3208433;23;19999;-85
2022/05/04 06:23:08;;;;;;;;;;;;;;;8.81;100.00;98502.75;3208892;23;19930;-89
2022/05/04 06:24:25;;;;;;;;;;;;;;;8.78;100.00;98500.16;3208903;23;20375;-86
2022/05/04 06:25:42;;;;;;;;;;;;;;;8.81;100.00;98505.34;3208566;23;19931;-85
2022/05/04 06:26:57;;;;;;;;;;;;;;;8.75;100.00;98497.63;3208701;23;19924;-86
2022/05/04 06:28:13;;;;;;;;;;;;;;;8.80;100.00;98501.03;3208547;23;19931;-84
2022/05/04 06:34:17;;;;;;;;;;;;;;;8.85;100.00;98500.91;3208867;23;19993;-85
2022/05/04 06:35:33;;;;;;;;;;;;;;;8.84;100.00;98500.06;3210841;23;19994;-87
2022/05/04 06:36:48;;;;;;;;;;;;;;;8.97;100.00;98505.03;3215571;23;19963;-88
2022/05/04 06:38:04;;;;;;;;;;;;;;;9.01;100.00;98506.69;3217445;23;19920;-89
2022/05/04 06:39:19;;;;;;;;;;;;;;;9.01;100.00;98499.72;3211413;23;19999;-87
2022/05/04 06:40:35;;;;;;;;;;;;;;;9.01;100.00;98502.34;3209109;23;19928;-87
2022/05/04 06:41:50;;;;;;;;;;;;;;;8.84;100.00;98500.06;3209251;23;19948;-88
2022/05/04 06:43:06;;;;;;;;;;;;;;;8.97;100.00;98500.66;3209476;23;19935;-88
2022/05/04 06:44:21;;;;;;;;;;;;;;;9.02;100.00;98498.84;3209434;23;19931;-87
2022/05/04 06:45:37;;;;;;;;;;;;;;;9.07;100.00;98498.72;3209680;23;19959;-87
2022/05/04 06:46:52;;;;;;;;;;;;;;;9.09;100.00;98499.56;3209747;23;19994;-88
2022/05/04 06:48:08;;;;;;;;;;;;;;;9.08;100.00;98502.19;3210028;23;19924;-88
2022/05/04 06:49:23;;;;;;;;;;;;;;;9.15;100.00;98503.78;3210597;23;19947;-92
2022/05/04 06:50:39;;;;;;;;;;;;;;;9.17;100.00;98497.63;3210669;23;19924;-88